Time;durP1;ratioP1;P1;durP2;ratioP2;P2;SDS_P1;SDS_P2;PMS_P1;PMS_P2;Temp;Humidity;BMP_temperature;BMP_pressure;BME280_temperature;BME280_humidity;BME280_pressure;Samples;Min_cycle;Max_cycle;Signal;HPM_P1;HPM_P2
2022/10/23 00:01:14;;;;;;;;;;;10.00;99.90;;;;;;5026710;28;19929;-74
2022/10/23 00:03:46;;;;;;;;;;;9.90;99.90;;;;;;4991368;28;20464;-74
2022/10/23 00:06:18;;;;;;;;;;;9.90;99.90;;;;;;5003339;28;19926;-76
2022/10/23 00:08:50;;;;;;;;;;;9.90;99.90;;;;;;5011773;28;19929;-75
2022/10/23 00:11:22;;;;;;;;;;;9.90;99.90;;;;;;5008161;28;19981;-74
2022/10/23 00:13:55;;;;;;;;;;;9.80;99.90;;;;;;4991834;28;19926;-75
2022/10/23 00:16:27;;;;;;;;;;;9.80;99.90;;;;;;5023708;28;19926;-75
2022/10/23 00:18:58;;;;;;;;;;;9.80;99.90;;;;;;5009661;28;19926;-74
2022/10/23 00:21:30;;;;;;;;;;;9.70;99.90;;;;;;5025650;28;19948;-74
2022/10/23 00:24:01;;;;;;;;;;;9.70;99.90;;;;;;4991950;28;19933;-74
2022/10/23 00:26:33;;;;;;;;;;;9.60;99.90;;;;;;5011727;28;20335;-74
2022/10/23 00:29:05;;;;;;;;;;;9.60;99.90;;;;;;4978643;28;19948;-74
2022/10/23 00:31:37;;;;;;;;;;;9.60;99.90;;;;;;4995319;28;19992;-73
2022/10/23 00:34:09;;;;;;;;;;;9.60;99.90;;;;;;4994634;28;19988;-74
2022/10/23 00:36:41;;;;;;;;;;;9.50;99.90;;;;;;4993936;28;19929;-74
2022/10/23 00:39:13;;;;;;;;;;;9.50;99.90;;;;;;5008970;28;19932;-74
2022/10/23 00:41:44;;;;;;;;;;;9.50;99.90;;;;;;4990081;28;20386;-74
2022/10/23 00:44:16;;;;;;;;;;;9.50;99.90;;;;;;4997702;28;19929;-73
2022/10/23 00:46:48;;;;;;;;;;;9.50;99.90;;;;;;5011424;28;20367;-75
2022/10/23 00:49:21;;;;;;;;;;;9.50;99.90;;;;;;4989787;28;19930;-75
2022/10/23 00:51:55;;;;;;;;;;;9.40;99.90;;;;;;5006491;28;19926;-75
2022/10/23 00:54:29;;;;;;;;;;;9.40;99.90;;;;;;4987284;28;19930;-74
2022/10/23 00:57:03;;;;;;;;;;;9.30;99.90;;;;;;4996303;28;19925;-76
2022/10/23 00:59:34;;;;;;;;;;;9.40;99.90;;;;;;4992826;28;20555;-74
2022/10/23 01:02:06;;;;;;;;;;;9.30;99.90;;;;;;5026560;28;19992;-75
2022/10/23 01:04:38;;;;;;;;;;;9.30;99.90;;;;;;5023381;28;19926;-74
2022/10/23 01:07:23;;;;;;;;;;;9.30;99.90;;;;;;4993179;28;19991;-73
2022/10/23 01:10:02;;;;;;;;;;;9.20;99.90;;;;;;5025500;28;19932;-74
2022/10/23 01:12:37;;;;;;;;;;;9.20;99.90;;;;;;5026256;28;19926;-75
2022/10/23 01:15:17;;;;;;;;;;;9.20;99.90;;;;;;4993400;28;19929;-74
2022/10/23 01:17:58;;;;;;;;;;;9.20;99.90;;;;;;4990936;28;20402;-75
2022/10/23 01:20:35;;;;;;;;;;;9.10;99.90;;;;;;4992330;28;20462;-74
2022/10/23 01:23:16;;;;;;;;;;;9.00;99.90;;;;;;5025521;28;20360;-74
2022/10/23 01:25:51;;;;;;;;;;;9.00;99.90;;;;;;5025736;28;19937;-75
2022/10/23 01:28:26;;;;;;;;;;;8.90;99.90;;;;;;5007685;28;19956;-76
2022/10/23 01:30:59;;;;;;;;;;;8.90;99.90;;;;;;4989571;28;20393;-75
2022/10/23 01:33:37;;;;;;;;;;;8.90;99.90;;;;;;4994508;28;19957;-73
2022/10/23 01:36:11;;;;;;;;;;;8.90;99.90;;;;;;4977067;28;19932;-74
2022/10/23 01:38:44;;;;;;;;;;;8.90;99.90;;;;;;5025154;28;19929;-75
2022/10/23 01:41:21;;;;;;;;;;;8.90;99.90;;;;;;5006557;28;19937;-75
2022/10/23 01:43:55;;;;;;;;;;;8.80;99.90;;;;;;4993082;28;19929;-76
2022/10/23 01:46:34;;;;;;;;;;;8.80;99.90;;;;;;4977310;28;19929;-76
2022/10/23 01:49:08;;;;;;;;;;;8.80;99.90;;;;;;5009729;28;19926;-74
2022/10/23 01:51:43;;;;;;;;;;;8.80;99.90;;;;;;4992941;28;19936;-74
2022/10/23 01:54:17;;;;;;;;;;;8.80;99.90;;;;;;5008896;28;19933;-75
2022/10/23 01:56:50;;;;;;;;;;;8.80;99.90;;;;;;4992151;28;19929;-74
2022/10/23 01:59:28;;;;;;;;;;;8.70;99.90;;;;;;5007064;28;20347;-74
2022/10/23 02:02:00;;;;;;;;;;;8.70;99.90;;;;;;4998363;28;19925;-75
2022/10/23 02:04:37;;;;;;;;;;;8.70;99.90;;;;;;4992616;28;19925;-74
2022/10/23 02:07:08;;;;;;;;;;;8.70;99.90;;;;;;4992299;28;19930;-74
2022/10/23 02:09:40;;;;;;;;;;;8.70;99.90;;;;;;4990393;28;19932;-74
2022/10/23 02:12:21;;;;;;;;;;;8.60;99.90;;;;;;5010261;28;20535;-74
2022/10/23 02:14:53;;;;;;;;;;;8.60;99.90;;;;;;5010385;28;19925;-74
2022/10/23 02:17:31;;;;;;;;;;;8.60;99.90;;;;;;4991809;28;19933;-74
2022/10/23 02:20:15;;;;;;;;;;;8.60;99.90;;;;;;5022919;28;19995;-75
2022/10/23 02:22:54;;;;;;;;;;;8.60;99.90;;;;;;4993796;28;20305;-73
2022/10/23 02:25:34;;;;;;;;;;;8.60;99.90;;;;;;4976990;28;19925;-74
2022/10/23 02:28:09;;;;;;;;;;;8.60;99.90;;;;;;5008322;28;19925;-77
2022/10/23 02:30:45;;;;;;;;;;;8.60;99.90;;;;;;5007464;28;19925;-74
2022/10/23 02:33:17;;;;;;;;;;;8.60;99.90;;;;;;5002273;28;20301;-75
2022/10/23 02:35:49;;;;;;;;;;;8.50;99.90;;;;;;5012583;28;19936;-74
2022/10/23 02:38:30;;;;;;;;;;;8.50;99.90;;;;;;5013773;28;21697;-75
2022/10/23 02:41:07;;;;;;;;;;;8.40;99.90;;;;;;4985564;28;20305;-74
2022/10/23 02:43:42;;;;;;;;;;;8.40;99.90;;;;;;4989554;28;19984;-75
2022/10/23 02:46:20;;;;;;;;;;;8.30;99.90;;;;;;4993269;28;19930;-74
2022/10/23 02:48:58;;;;;;;;;;;8.10;99.90;;;;;;4998410;28;19925;-75
2022/10/23 02:51:33;;;;;;;;;;;8.10;99.90;;;;;;4993004;28;20344;-75
2022/10/23 02:54:09;;;;;;;;;;;8.10;99.90;;;;;;4996295;28;20381;-75
2022/10/23 02:56:44;;;;;;;;;;;8.10;99.90;;;;;;4994802;28;19932;-74
2022/10/23 02:59:30;;;;;;;;;;;8.10;99.90;;;;;;4983913;28;19932;-76
2022/10/23 03:02:16;;;;;;;;;;;8.10;99.90;;;;;;4978752;28;19926;-75
2022/10/23 03:04:49;;;;;;;;;;;8.10;99.90;;;;;;4993819;28;19933;-74
2022/10/23 03:07:21;;;;;;;;;;;8.10;99.90;;;;;;4991836;28;19926;-74
2022/10/23 03:10:00;;;;;;;;;;;8.10;99.90;;;;;;4996127;28;19988;-74
2022/10/23 03:12:32;;;;;;;;;;;8.10;99.90;;;;;;5011215;28;19972;-74
2022/10/23 03:15:05;;;;;;;;;;;8.10;99.90;;;;;;5010894;28;20426;-74
2022/10/23 03:17:37;;;;;;;;;;;8.10;99.90;;;;;;5009878;28;19960;-75
2022/10/23 03:20:08;;;;;;;;;;;8.10;99.90;;;;;;5021546;28;19933;-76
2022/10/23 03:22:41;;;;;;;;;;;8.00;99.90;;;;;;4996112;28;20032;-73
2022/10/23 03:25:13;;;;;;;;;;;8.00;99.90;;;;;;4996076;28;19931;-74
2022/10/23 03:27:44;;;;;;;;;;;8.00;99.90;;;;;;4991905;28;20284;-75
2022/10/23 03:30:16;;;;;;;;;;;8.00;99.90;;;;;;5007279;28;20028;-74
2022/10/23 03:32:52;;;;;;;;;;;8.00;99.90;;;;;;4995900;28;19976;-75
2022/10/23 03:35:24;;;;;;;;;;;8.00;99.90;;;;;;4995464;28;19930;-76
2022/10/23 03:37:56;;;;;;;;;;;8.00;99.90;;;;;;5028216;28;20344;-75
2022/10/23 03:40:28;;;;;;;;;;;8.00;99.90;;;;;;5024968;28;19925;-74
2022/10/23 03:42:59;;;;;;;;;;;8.00;99.90;;;;;;5006138;28;19936;-76
2022/10/23 03:45:31;;;;;;;;;;;8.00;99.90;;;;;;5027783;28;19933;-76
2022/10/23 03:48:03;;;;;;;;;;;8.00;99.90;;;;;;5009906;28;19972;-75
2022/10/23 03:50:35;;;;;;;;;;;7.90;99.90;;;;;;5027446;28;19948;-75
2022/10/23 03:53:07;;;;;;;;;;;7.90;99.90;;;;;;5013128;28;20343;-74
2022/10/23 03:55:38;;;;;;;;;;;8.00;99.90;;;;;;5027469;28;19925;-76
2022/10/23 03:58:10;;;;;;;;;;;7.90;99.90;;;;;;5006960;28;20670;-75
2022/10/23 04:00:41;;;;;;;;;;;8.00;99.90;;;;;;5010702;28;20384;-74
2022/10/23 04:03:13;;;;;;;;;;;8.00;99.90;;;;;;4995389;28;19926;-74
2022/10/23 04:05:45;;;;;;;;;;;8.00;99.90;;;;;;5027950;28;19987;-74
2022/10/23 04:08:19;;;;;;;;;;;8.00;99.90;;;;;;5006602;28;19926;-75
2022/10/23 04:10:53;;;;;;;;;;;8.00;99.90;;;;;;4989291;28;19929;-73
2022/10/23 04:13:42;;;;;;;;;;;8.00;99.90;;;;;;5008372;28;19925;-75
2022/10/23 04:16:13;;;;;;;;;;;8.00;99.90;;;;;;4995060;28;19980;-74
2022/10/23 04:18:45;;;;;;;;;;;8.00;99.90;;;;;;4992632;28;19929;-74
2022/10/23 04:21:16;;;;;;;;;;;8.00;99.90;;;;;;5010553;28;19925;-74
2022/10/23 04:23:48;;;;;;;;;;;7.90;99.90;;;;;;5027122;28;19933;-75
2022/10/23 04:26:21;;;;;;;;;;;7.80;99.90;;;;;;5009615;28;20770;-74
2022/10/23 04:28:52;;;;;;;;;;;7.90;99.90;;;;;;5026700;28;19980;-74
2022/10/23 04:31:27;;;;;;;;;;;7.90;99.90;;;;;;4991589;28;19932;-74
2022/10/23 04:33:58;;;;;;;;;;;7.90;99.90;;;;;;4996039;28;19926;-74
2022/10/23 04:36:30;;;;;;;;;;;7.90;99.90;;;;;;4974601;28;19925;-74
2022/10/23 04:39:08;;;;;;;;;;;7.90;99.90;;;;;;5018448;28;19926;-74
2022/10/23 04:41:40;;;;;;;;;;;7.90;99.90;;;;;;4992484;28;19933;-74
2022/10/23 04:44:11;;;;;;;;;;;8.00;99.90;;;;;;5012116;28;19933;-74
2022/10/23 04:46:43;;;;;;;;;;;8.00;99.90;;;;;;4993787;28;19975;-75
2022/10/23 04:49:14;;;;;;;;;;;8.00;99.90;;;;;;5026311;28;20002;-75
2022/10/23 04:52:04;;;;;;;;;;;7.90;99.90;;;;;;4993699;28;20029;-74
2022/10/23 04:55:11;;;;;;;;;;;8.00;99.90;;;;;;4981383;28;19930;-75
2022/10/23 04:57:51;;;;;;;;;;;8.00;99.90;;;;;;5002328;28;19926;-77
2022/10/23 05:00:23;;;;;;;;;;;7.90;99.90;;;;;;5025904;28;19925;-75
2022/10/23 05:02:56;;;;;;;;;;;7.90;99.90;;;;;;4988600;28;19932;-75
2022/10/23 05:05:28;;;;;;;;;;;7.90;99.90;;;;;;5009621;28;19932;-74
2022/10/23 05:08:22;;;;;;;;;;;7.90;99.90;;;;;;4980829;28;20549;-75
2022/10/23 05:11:12;;;;;;;;;;;7.80;99.90;;;;;;4990518;28;19937;-74
2022/10/23 05:13:46;;;;;;;;;;;7.80;99.90;;;;;;5007179;28;19925;-75
2022/10/23 05:16:33;;;;;;;;;;;7.80;99.90;;;;;;4989169;28;19933;-75
2022/10/23 05:19:06;;;;;;;;;;;7.80;99.90;;;;;;5003727;28;20396;-75
2022/10/23 05:21:38;;;;;;;;;;;7.80;99.90;;;;;;4993528;28;20399;-75
2022/10/23 05:24:10;;;;;;;;;;;7.80;99.90;;;;;;5009208;28;20315;-75
2022/10/23 05:26:52;;;;;;;;;;;7.70;99.90;;;;;;4991413;28;19937;-74
2022/10/23 05:29:24;;;;;;;;;;;7.70;99.90;;;;;;5019213;28;19980;-75
2022/10/23 05:31:59;;;;;;;;;;;7.70;99.90;;;;;;4989782;28;20388;-75
2022/10/23 05:34:34;;;;;;;;;;;7.60;99.90;;;;;;5023199;28;19932;-76
2022/10/23 05:37:09;;;;;;;;;;;7.60;99.90;;;;;;5025607;28;19960;-74
2022/10/23 05:39:41;;;;;;;;;;;7.60;99.90;;;;;;4994478;28;20384;-75
2022/10/23 05:42:15;;;;;;;;;;;7.60;99.90;;;;;;4993385;28;19964;-75
2022/10/23 05:44:46;;;;;;;;;;;7.50;99.90;;;;;;4993267;28;20380;-75
2022/10/23 05:47:56;;;;;;;;;;;7.60;99.90;;;;;;4948812;29;20416;-75
2022/10/23 05:50:46;;;;;;;;;;;7.60;99.90;;;;;;4950615;28;19948;-75
2022/10/23 05:53:34;;;;;;;;;;;7.50;99.90;;;;;;4978882;28;19929;-77
2022/10/23 05:56:14;;;;;;;;;;;7.50;99.90;;;;;;5008989;28;19925;-77
2022/10/23 05:59:00;;;;;;;;;;;7.50;99.90;;;;;;5019547;28;19972;-75
2022/10/23 06:01:50;;;;;;;;;;;7.50;99.90;;;;;;5016763;28;19933;-75
2022/10/23 06:04:48;;;;;;;;;;;7.50;99.90;;;;;;5006090;28;19929;-74
2022/10/23 06:07:44;;;;;;;;;;;7.50;99.90;;;;;;4957747;28;19997;-74
2022/10/23 06:10:17;;;;;;;;;;;7.50;99.90;;;;;;5006283;28;19930;-76
2022/10/23 06:12:51;;;;;;;;;;;7.50;99.90;;;;;;4993619;28;19926;-74
2022/10/23 06:15:25;;;;;;;;;;;7.50;99.90;;;;;;5008616;28;19929;-75
2022/10/23 06:18:04;;;;;;;;;;;7.60;99.90;;;;;;4995652;28;20364;-75
2022/10/23 06:20:46;;;;;;;;;;;7.70;99.90;;;;;;4994207;28;19934;-77
2022/10/23 06:23:24;;;;;;;;;;;7.70;99.90;;;;;;5009273;28;19925;-74
2022/10/23 06:26:21;;;;;;;;;;;7.70;99.90;;;;;;4995431;28;19952;-75
2022/10/23 06:29:08;;;;;;;;;;;7.80;99.90;;;;;;5018123;28;19930;-74
2022/10/23 06:31:41;;;;;;;;;;;7.90;99.90;;;;;;5028768;28;20016;-74
2022/10/23 06:34:13;;;;;;;;;;;7.90;99.90;;;;;;4996163;28;20388;-74
2022/10/23 06:36:45;;;;;;;;;;;7.90;99.90;;;;;;4979164;28;19988;-74
2022/10/23 06:39:32;;;;;;;;;;;8.00;99.90;;;;;;5011333;28;19929;-74
2022/10/23 06:42:26;;;;;;;;;;;8.10;99.90;;;;;;5010415;28;20332;-73
2022/10/23 06:44:58;;;;;;;;;;;8.10;99.90;;;;;;5013894;28;20015;-74
2022/10/23 06:47:44;;;;;;;;;;;8.10;99.90;;;;;;4995392;28;19933;-75
2022/10/23 06:50:25;;;;;;;;;;;8.20;99.90;;;;;;5004143;28;19936;-74
2022/10/23 06:52:59;;;;;;;;;;;8.30;99.90;;;;;;5028335;28;20339;-74
2022/10/23 06:55:32;;;;;;;;;;;8.30;99.90;;;;;;4995708;28;19926;-75
2022/10/23 06:58:09;;;;;;;;;;;8.30;99.90;;;;;;5010140;28;19926;-75
2022/10/23 07:01:00;;;;;;;;;;;8.30;99.90;;;;;;4994024;28;19925;-75
2022/10/23 07:03:33;;;;;;;;;;;8.30;99.90;;;;;;5027492;28;19980;-75
2022/10/23 07:06:08;;;;;;;;;;;8.30;99.90;;;;;;4999845;28;19934;-75
2022/10/23 07:08:39;;;;;;;;;;;8.40;99.90;;;;;;5008974;28;20360;-75
2022/10/23 07:11:31;;;;;;;;;;;8.40;99.90;;;;;;4997829;28;19930;-76
2022/10/23 07:14:03;;;;;;;;;;;8.30;99.90;;;;;;4993046;28;19926;-76
2022/10/23 07:16:35;;;;;;;;;;;8.40;99.90;;;;;;5009722;28;19925;-74
2022/10/23 07:19:07;;;;;;;;;;;8.50;99.90;;;;;;5019937;28;19925;-74
2022/10/23 07:21:56;;;;;;;;;;;8.50;99.90;;;;;;4993554;28;19929;-74
2022/10/23 07:24:47;;;;;;;;;;;8.60;99.90;;;;;;4995240;28;19929;-74
2022/10/23 07:27:24;;;;;;;;;;;8.60;99.90;;;;;;4994394;28;19980;-76
2022/10/23 07:29:59;;;;;;;;;;;8.70;99.90;;;;;;4993456;28;19929;-75
2022/10/23 07:32:38;;;;;;;;;;;8.80;99.90;;;;;;5026944;28;19925;-76
2022/10/23 07:35:28;;;;;;;;;;;8.80;99.90;;;;;;4992989;28;19972;-75
2022/10/23 07:38:06;;;;;;;;;;;8.90;99.90;;;;;;4992199;28;19964;-76
2022/10/23 07:40:44;;;;;;;;;;;8.90;99.90;;;;;;4998661;28;19925;-74
2022/10/23 07:43:17;;;;;;;;;;;9.00;99.90;;;;;;4994777;28;19925;-75
2022/10/23 07:45:45;;;;;;;;;;;9.00;99.90;;;;;;5024787;28;19984;-74
2022/10/23 07:48:34;;;;;;;;;;;9.10;99.90;;;;;;4987743;28;19929;-75
2022/10/23 07:51:09;;;;;;;;;;;9.20;99.90;;;;;;5021317;28;19932;-76
2022/10/23 07:53:44;;;;;;;;;;;9.20;99.90;;;;;;4988661;28;19925;-74
2022/10/23 07:56:36;;;;;;;;;;;9.20;99.90;;;;;;5006643;28;19935;-77
2022/10/23 07:59:19;;;;;;;;;;;9.30;99.90;;;;;;4988604;28;19941;-76
2022/10/23 08:01:55;;;;;;;;;;;9.40;99.90;;;;;;5009008;28;19932;-74
2022/10/23 08:04:26;;;;;;;;;;;9.50;99.90;;;;;;4997803;28;19932;-74
2022/10/23 08:07:09;;;;;;;;;;;9.60;99.90;;;;;;5002296;28;19926;-74
2022/10/23 08:09:43;;;;;;;;;;;9.70;99.90;;;;;;5025148;28;19926;-74
2022/10/23 08:12:15;;;;;;;;;;;9.80;99.90;;;;;;4993848;28;20024;-78
2022/10/23 08:14:47;;;;;;;;;;;9.90;99.90;;;;;;4993738;28;19926;-74
2022/10/23 08:17:19;;;;;;;;;;;10.00;99.90;;;;;;4989425;28;19988;-73
2022/10/23 08:20:01;;;;;;;;;;;10.10;99.90;;;;;;5010477;28;19925;-75
2022/10/23 08:22:35;;;;;;;;;;;10.20;99.90;;;;;;4989809;28;19977;-75
2022/10/23 08:25:08;;;;;;;;;;;10.20;99.90;;;;;;4987272;28;20451;-75
2022/10/23 08:27:40;;;;;;;;;;;10.30;99.90;;;;;;4992850;28;20024;-74
2022/10/23 08:30:13;;;;;;;;;;;10.40;99.90;;;;;;4987406;28;19980;-74
2022/10/23 08:32:45;;;;;;;;;;;10.50;99.90;;;;;;5026204;28;19988;-74
2022/10/23 08:35:17;;;;;;;;;;;10.50;99.90;;;;;;4995054;28;20017;-74
2022/10/23 08:37:49;;;;;;;;;;;10.60;99.90;;;;;;4993625;28;19933;-75
2022/10/23 08:40:24;;;;;;;;;;;10.70;99.90;;;;;;4986277;28;19925;-76
2022/10/23 08:43:28;;;;;;;;;;;10.70;99.90;;;;;;5008721;28;20504;-74
2022/10/23 08:46:16;;;;;;;;;;;10.80;99.90;;;;;;4998283;28;19981;-75
2022/10/23 08:49:40;;;;;;;;;;;10.90;99.90;;;;;;4957701;28;19934;-74
2022/10/23 08:52:14;;;;;;;;;;;11.00;99.90;;;;;;4926641;29;19926;-76
2022/10/23 08:54:58;;;;;;;;;;;11.10;99.90;;;;;;4987409;28;19925;-72
2022/10/23 08:57:35;;;;;;;;;;;11.20;99.90;;;;;;4986571;28;19932;-75
2022/10/23 09:00:11;;;;;;;;;;;11.40;99.90;;;;;;5022546;28;19925;-75
2022/10/23 09:02:50;;;;;;;;;;;11.40;99.90;;;;;;4994153;28;20404;-75
2022/10/23 09:05:29;;;;;;;;;;;11.60;99.90;;;;;;5010021;28;19960;-75
2022/10/23 09:08:10;;;;;;;;;;;11.70;99.90;;;;;;5001685;28;19929;-73
2022/10/23 09:10:50;;;;;;;;;;;11.80;99.90;;;;;;4992454;28;19930;-73
2022/10/23 09:13:16;;;;;;;;;;;11.90;99.90;;;;;;5002428;28;19980;-75
2022/10/23 09:15:52;;;;;;;;;;;12.00;99.90;;;;;;5007969;28;19925;-75
2022/10/23 09:18:24;;;;;;;;;;;12.10;99.90;;;;;;5024212;28;19987;-74
2022/10/23 09:20:56;;;;;;;;;;;12.20;99.90;;;;;;5003790;28;19930;-75
2022/10/23 09:23:27;;;;;;;;;;;12.30;99.90;;;;;;5005842;28;19936;-74
2022/10/23 09:26:00;;;;;;;;;;;12.40;99.90;;;;;;5007237;28;20355;-75
2022/10/23 09:28:35;;;;;;;;;;;12.50;99.90;;;;;;4989273;28;19926;-75
2022/10/23 09:31:10;;;;;;;;;;;12.60;99.90;;;;;;4974258;28;19925;-75
2022/10/23 09:33:52;;;;;;;;;;;12.70;99.90;;;;;;4988859;28;19929;-76
2022/10/23 09:36:27;;;;;;;;;;;12.80;99.90;;;;;;5022098;28;19933;-74
2022/10/23 09:38:54;;;;;;;;;;;12.90;99.90;;;;;;5020874;28;19984;-74
2022/10/23 09:41:33;;;;;;;;;;;13.10;99.90;;;;;;5005936;28;19996;-75
2022/10/23 09:44:00;;;;;;;;;;;13.20;99.90;;;;;;4990436;28;19937;-75
2022/10/23 09:46:49;;;;;;;;;;;13.30;99.90;;;;;;5024230;28;20012;-75
2022/10/23 09:49:25;;;;;;;;;;;13.30;99.90;;;;;;5003747;28;19926;-76
2022/10/23 09:52:01;;;;;;;;;;;13.50;99.90;;;;;;4981952;28;19972;-74
2022/10/23 09:54:35;;;;;;;;;;;13.60;99.90;;;;;;5009499;28;19988;-71
2022/10/23 09:57:16;;;;;;;;;;;13.60;99.90;;;;;;4989810;28;19926;-77
2022/10/23 09:59:52;;;;;;;;;;;13.70;99.90;;;;;;5020643;28;20602;-73
2022/10/23 10:02:24;;;;;;;;;;;13.90;99.90;;;;;;4974143;28;19973;-75
2022/10/23 10:05:38;;;;;;;;;;;14.00;99.90;;;;;;5006332;28;19935;-74
2022/10/23 10:08:16;;;;;;;;;;;14.10;99.90;;;;;;4982183;28;19925;-75
2022/10/23 10:11:00;;;;;;;;;;;14.10;99.90;;;;;;5004548;28;19933;-75
2022/10/23 10:13:32;;;;;;;;;;;14.20;99.90;;;;;;5006172;28;19940;-75
2022/10/23 10:16:22;;;;;;;;;;;14.30;99.90;;;;;;4999611;28;19933;-76
2022/10/23 10:19:06;;;;;;;;;;;14.40;99.90;;;;;;5004154;28;19925;-77
2022/10/23 10:21:44;;;;;;;;;;;14.50;99.90;;;;;;5000202;28;19948;-75
2022/10/23 10:24:29;;;;;;;;;;;14.60;99.90;;;;;;4985506;28;20089;-76
2022/10/23 10:27:19;;;;;;;;;;;14.60;99.90;;;;;;4991167;28;20592;-78
2022/10/23 10:30:00;;;;;;;;;;;14.60;99.90;;;;;;4999236;28;19932;-76
2022/10/23 10:32:45;;;;;;;;;;;14.70;99.90;;;;;;5003598;28;19925;-75
2022/10/23 10:35:32;;;;;;;;;;;14.80;99.90;;;;;;5017531;28;19929;-75
2022/10/23 10:38:22;;;;;;;;;;;14.90;99.90;;;;;;5005389;28;19925;-76
2022/10/23 10:41:09;;;;;;;;;;;15.00;99.90;;;;;;4999861;28;19937;-75
2022/10/23 10:43:50;;;;;;;;;;;15.10;99.90;;;;;;4987769;28;19934;-76
2022/10/23 10:46:42;;;;;;;;;;;15.20;99.90;;;;;;5007028;28;19934;-75
2022/10/23 10:49:18;;;;;;;;;;;15.30;99.90;;;;;;4978401;28;19933;-75
2022/10/23 10:52:20;;;;;;;;;;;15.40;99.90;;;;;;4987186;28;20031;-74
2022/10/23 10:55:11;;;;;;;;;;;15.40;99.90;;;;;;5017510;28;19937;-77
2022/10/23 10:58:03;;;;;;;;;;;15.50;99.90;;;;;;4990696;28;19929;-74
2022/10/23 11:00:34;;;;;;;;;;;15.60;99.90;;;;;;4980099;28;19945;-75
2022/10/23 11:03:24;;;;;;;;;;;15.70;99.90;;;;;;5007778;28;20004;-74
2022/10/23 11:05:57;;;;;;;;;;;15.70;99.90;;;;;;4990301;28;20375;-72
2022/10/23 11:08:36;;;;;;;;;;;15.80;99.90;;;;;;5010052;28;19930;-72
2022/10/23 11:11:12;;;;;;;;;;;15.90;99.90;;;;;;4988254;28;19926;-75
2022/10/23 11:13:44;;;;;;;;;;;16.00;99.90;;;;;;4989942;28;19937;-74
2022/10/23 11:16:18;;;;;;;;;;;16.10;99.90;;;;;;5022334;28;19925;-75
2022/10/23 11:18:58;;;;;;;;;;;16.10;99.90;;;;;;5025698;28;19980;-77
2022/10/23 11:21:34;;;;;;;;;;;16.20;99.90;;;;;;5025092;28;19930;-76
2022/10/23 11:24:11;;;;;;;;;;;16.20;99.90;;;;;;5023744;28;19984;-74
2022/10/23 11:27:00;;;;;;;;;;;16.30;99.90;;;;;;4987498;28;19925;-75
2022/10/23 11:29:32;;;;;;;;;;;16.30;99.90;;;;;;4993905;28;19971;-75
2022/10/23 11:32:05;;;;;;;;;;;16.40;99.90;;;;;;4977826;28;19977;-74
2022/10/23 11:34:46;;;;;;;;;;;16.40;99.90;;;;;;5009807;28;19948;-75
2022/10/23 11:37:20;;;;;;;;;;;16.50;99.90;;;;;;4975771;28;19937;-75
2022/10/23 11:40:03;;;;;;;;;;;16.60;99.90;;;;;;5010241;28;19929;-76
2022/10/23 11:42:38;;;;;;;;;;;16.70;99.90;;;;;;5010727;28;19973;-76
2022/10/23 11:45:28;;;;;;;;;;;16.90;99.90;;;;;;5008835;28;19925;-74
2022/10/23 11:48:00;;;;;;;;;;;16.90;99.90;;;;;;5006226;28;19929;-74
2022/10/23 11:50:33;;;;;;;;;;;17.00;99.90;;;;;;4970549;28;20300;-74
2022/10/23 11:53:09;;;;;;;;;;;17.00;99.90;;;;;;4993054;28;20392;-76
2022/10/23 11:56:03;;;;;;;;;;;17.10;99.90;;;;;;4992859;28;20262;-76
2022/10/23 11:58:41;;;;;;;;;;;17.10;99.90;;;;;;5007983;28;19930;-74
2022/10/23 12:01:35;;;;;;;;;;;17.20;99.90;;;;;;5002278;28;19925;-76
2022/10/23 12:04:12;;;;;;;;;;;17.20;99.90;;;;;;5008961;28;20393;-75
2022/10/23 12:06:46;;;;;;;;;;;17.30;99.90;;;;;;5024812;28;19925;-75
2022/10/23 12:09:26;;;;;;;;;;;17.30;99.90;;;;;;4990742;28;19937;-76
2022/10/23 12:12:07;;;;;;;;;;;17.30;99.90;;;;;;4991865;28;19952;-76
2022/10/23 12:14:40;;;;;;;;;;;17.40;99.90;;;;;;5013650;28;19930;-75
2022/10/23 12:17:21;;;;;;;;;;;17.40;99.90;;;;;;5012731;28;19960;-76
2022/10/23 12:19:50;;;;;;;;;;;17.40;99.90;;;;;;5007927;28;19925;-74
2022/10/23 12:22:25;;;;;;;;;;;17.50;99.90;;;;;;5005805;28;20339;-76
2022/10/23 12:24:57;;;;;;;;;;;17.50;99.90;;;;;;4991168;28;19925;-75
2022/10/23 12:27:31;;;;;;;;;;;17.50;99.90;;;;;;5006430;28;19933;-76
2022/10/23 12:30:17;;;;;;;;;;;17.60;99.90;;;;;;5009380;28;19929;-75
2022/10/23 12:32:58;;;;;;;;;;;17.60;99.90;;;;;;4975440;28;20694;-74
2022/10/23 12:35:50;;;;;;;;;;;17.80;99.90;;;;;;4987145;28;19933;-74
2022/10/23 12:38:22;;;;;;;;;;;17.90;99.90;;;;;;5004656;28;19926;-71
2022/10/23 12:41:07;;;;;;;;;;;18.00;99.90;;;;;;4991661;28;19925;-73
2022/10/23 12:43:41;;;;;;;;;;;18.00;99.90;;;;;;5002675;28;19929;-73
2022/10/23 12:46:30;;;;;;;;;;;17.90;99.90;;;;;;5019810;28;20003;-74
2022/10/23 12:49:12;;;;;;;;;;;17.90;99.90;;;;;;4991532;28;19961;-76
2022/10/23 12:51:44;;;;;;;;;;;17.90;99.90;;;;;;5003492;28;19926;-73
2022/10/23 12:54:17;;;;;;;;;;;18.00;99.90;;;;;;5008671;28;19991;-76
2022/10/23 12:56:49;;;;;;;;;;;18.00;99.90;;;;;;4993788;28;19933;-76
2022/10/23 12:59:40;;;;;;;;;;;18.10;99.90;;;;;;5009483;28;19981;-75
2022/10/23 13:02:21;;;;;;;;;;;18.20;99.90;;;;;;4987511;28;20078;-76
2022/10/23 13:04:53;;;;;;;;;;;18.30;99.90;;;;;;5008187;28;20411;-75
2022/10/23 13:07:27;;;;;;;;;;;18.40;99.90;;;;;;5023452;28;19930;-75
2022/10/23 13:10:01;;;;;;;;;;;18.50;99.90;;;;;;5024575;28;20540;-75
2022/10/23 13:12:37;;;;;;;;;;;18.60;99.90;;;;;;5009103;28;22911;-74
2022/10/23 13:15:09;;;;;;;;;;;18.60;99.90;;;;;;4988908;28;20045;-72
2022/10/23 13:17:39;;;;;;;;;;;18.70;99.90;;;;;;4974511;28;19933;-72
2022/10/23 13:20:17;;;;;;;;;;;18.70;99.90;;;;;;5001113;28;20319;-74
2022/10/23 13:22:51;;;;;;;;;;;18.80;99.90;;;;;;5021469;28;19933;-74
2022/10/23 13:25:33;;;;;;;;;;;18.80;99.90;;;;;;5004975;28;19941;-74
2022/10/23 13:28:18;;;;;;;;;;;18.80;99.90;;;;;;4985699;28;19926;-75
2022/10/23 13:31:00;;;;;;;;;;;18.80;99.90;;;;;;5008331;28;21240;-75
2022/10/23 13:33:42;;;;;;;;;;;18.80;99.90;;;;;;4991514;28;19926;-76
2022/10/23 13:36:15;;;;;;;;;;;18.90;99.90;;;;;;4986508;28;19926;-76
2022/10/23 13:39:01;;;;;;;;;;;18.90;99.90;;;;;;4990948;28;19929;-76
2022/10/23 13:41:35;;;;;;;;;;;18.80;99.90;;;;;;5021416;28;19999;-73
2022/10/23 13:44:02;;;;;;;;;;;18.90;99.90;;;;;;4988732;28;19980;-76
2022/10/23 13:46:33;;;;;;;;;;;18.90;99.90;;;;;;4989804;28;20061;-74
2022/10/23 13:49:05;;;;;;;;;;;19.00;99.90;;;;;;5006879;28;19925;-74
2022/10/23 13:51:43;;;;;;;;;;;19.00;99.90;;;;;;5007041;28;20015;-74
2022/10/23 13:54:22;;;;;;;;;;;19.00;99.90;;;;;;4989546;28;20699;-74
2022/10/23 13:56:54;;;;;;;;;;;19.10;99.90;;;;;;5006760;28;20005;-74
2022/10/23 13:59:26;;;;;;;;;;;19.10;99.90;;;;;;5005735;28;19932;-74
2022/10/23 14:01:57;;;;;;;;;;;19.10;99.90;;;;;;5006940;28;19944;-74
2022/10/23 14:04:29;;;;;;;;;;;19.10;99.90;;;;;;5020748;28;19980;-74
2022/10/23 14:07:01;;;;;;;;;;;19.10;99.90;;;;;;5006082;28;19925;-75
2022/10/23 14:09:32;;;;;;;;;;;19.00;99.90;;;;;;4980479;28;19929;-75
2022/10/23 14:12:04;;;;;;;;;;;19.00;99.90;;;;;;5003167;28;19930;-74
2022/10/23 14:14:35;;;;;;;;;;;18.90;99.90;;;;;;5020848;28;19934;-73
2022/10/23 14:17:07;;;;;;;;;;;18.80;99.90;;;;;;5003589;28;19988;-75
2022/10/23 14:19:38;;;;;;;;;;;18.80;99.90;;;;;;5003160;28;19930;-76
2022/10/23 14:22:10;;;;;;;;;;;18.70;99.90;;;;;;4991688;28;19929;-74
2022/10/23 14:24:42;;;;;;;;;;;18.60;99.90;;;;;;5009600;28;19981;-76
2022/10/23 14:27:13;;;;;;;;;;;18.30;99.90;;;;;;5005660;28;20348;-76
2022/10/23 14:29:45;;;;;;;;;;;18.20;99.90;;;;;;5007707;28;19929;-76
2022/10/23 14:32:16;;;;;;;;;;;18.10;99.90;;;;;;5021273;28;19926;-76
2022/10/23 14:34:48;;;;;;;;;;;18.00;99.90;;;;;;4995007;28;19937;-76
2022/10/23 14:37:15;;;;;;;;;;;17.90;99.90;;;;;;5006898;28;19936;-74
2022/10/23 14:39:46;;;;;;;;;;;17.80;99.90;;;;;;5012590;28;19932;-74
2022/10/23 14:42:18;;;;;;;;;;;17.70;99.90;;;;;;4995770;28;19925;-75
2022/10/23 14:44:50;;;;;;;;;;;17.50;99.90;;;;;;5029214;28;19926;-76
2022/10/23 14:47:22;;;;;;;;;;;17.40;99.90;;;;;;5028724;28;19972;-76
2022/10/23 14:49:55;;;;;;;;;;;17.30;99.90;;;;;;5013434;28;19925;-75
2022/10/23 14:52:26;;;;;;;;;;;17.20;99.90;;;;;;5011707;28;20841;-76
2022/10/23 14:54:59;;;;;;;;;;;17.10;99.90;;;;;;5013878;28;19964;-76
2022/10/23 14:57:31;;;;;;;;;;;17.10;99.90;;;;;;5007770;28;19929;-74
2022/10/23 15:00:03;;;;;;;;;;;17.10;99.90;;;;;;5012440;28;20343;-74
2022/10/23 15:02:35;;;;;;;;;;;17.00;99.90;;;;;;4997700;28;19926;-77
2022/10/23 15:05:04;;;;;;;;;;;17.00;99.90;;;;;;4996832;28;19976;-75
2022/10/23 15:07:35;;;;;;;;;;;17.00;99.90;;;;;;4992247;28;19992;-75
2022/10/23 15:10:07;;;;;;;;;;;17.10;99.90;;;;;;4988851;28;19926;-74
2022/10/23 15:12:39;;;;;;;;;;;17.10;99.90;;;;;;5026909;28;19929;-75
2022/10/23 15:15:11;;;;;;;;;;;17.10;99.90;;;;;;5013415;28;19926;-75
2022/10/23 15:17:42;;;;;;;;;;;17.10;99.90;;;;;;4995346;28;19929;-74
2022/10/23 15:20:14;;;;;;;;;;;17.10;99.90;;;;;;5012920;28;20288;-76